createdAt,value
2019-02-08T00:00:27.684Z,27.00
2019-02-08T00:02:34.569Z,27.13
2019-02-08T00:04:41.652Z,29.77
2019-02-08T00:06:49.347Z,24.53
2019-02-08T00:08:56.283Z,26.67
2019-02-08T00:11:03.088Z,26.47
2019-02-08T00:13:11.044Z,26.77
2019-02-08T00:15:26.363Z,27.70
2019-02-08T00:17:33.871Z,26.23
2019-02-08T00:19:41.364Z,26.80
2019-02-08T00:21:48.684Z,26.73
2019-02-08T00:23:55.847Z,25.77
2019-02-08T00:26:02.764Z,28.60
2019-02-08T00:28:10.244Z,28.33
2019-02-08T00:30:26.531Z,26.50
2019-02-08T00:32:33.526Z,27.70
2019-02-08T00:34:40.284Z,27.60
2019-02-08T00:36:47.604Z,26.27
2019-02-08T00:38:54.413Z,25.53
2019-02-08T00:41:01.763Z,26.17
2019-02-08T00:43:09.444Z,26.47
2019-02-08T00:45:23.137Z,27.27
2019-02-08T00:47:30.244Z,26.47
2019-02-08T00:49:37.203Z,31.07
2019-02-08T00:51:44.085Z,29.53
2019-02-08T00:53:50.883Z,28.20
2019-02-08T00:55:57.926Z,29.67
2019-02-08T00:58:06.244Z,29.27
2019-02-08T01:00:17.203Z,26.60
2019-02-08T01:02:24.204Z,26.90
2019-02-08T01:04:31.285Z,26.03
2019-02-08T01:06:38.204Z,26.80
2019-02-08T01:08:45.204Z,26.77
2019-02-08T01:10:53.645Z,26.40
2019-02-08T01:13:01.087Z,28.43
2019-02-08T01:15:12.564Z,27.03
2019-02-08T01:17:19.604Z,26.40
2019-02-08T01:19:26.284Z,24.07
2019-02-08T01:21:32.914Z,27.47
2019-02-08T01:23:41.353Z,26.00
2019-02-08T01:25:48.687Z,28.30
2019-02-08T01:27:55.966Z,27.57
2019-02-08T01:30:05.519Z,27.80
2019-02-08T01:32:12.845Z,26.03
2019-02-08T01:34:19.606Z,27.63
2019-02-08T01:36:26.443Z,29.37
2019-02-08T01:38:35.604Z,27.57
2019-02-08T01:40:43.964Z,25.77
2019-02-08T01:42:51.003Z,26.60
2019-02-08T01:44:58.204Z,27.80
2019-02-08T01:47:05.363Z,25.67
2019-02-08T01:49:13.684Z,27.23
2019-02-08T01:51:20.444Z,27.63
2019-02-08T01:53:27.844Z,30.10
2019-02-08T01:55:35.445Z,26.63
2019-02-08T01:57:42.645Z,27.97
2019-02-08T01:59:50.084Z,25.90
2019-02-08T02:01:56.644Z,29.47
2019-02-08T02:04:03.503Z,25.20
2019-02-08T02:06:10.806Z,26.47
2019-02-08T02:08:17.995Z,26.53
2019-02-08T02:10:46.645Z,26.77
2019-02-08T02:12:54.044Z,27.73
2019-02-08T02:15:01.204Z,25.90
2019-02-08T02:17:09.885Z,27.23
2019-02-08T02:19:16.603Z,28.57
2019-02-08T02:21:24.863Z,27.80
2019-02-08T02:23:31.683Z,27.40
2019-02-08T02:25:38.382Z,27.03
2019-02-08T02:27:46.261Z,27.10
2019-02-08T02:29:55.302Z,28.33
2019-02-08T02:32:02.160Z,28.30
2019-02-08T02:34:10.702Z,26.40
2019-02-08T02:36:18.060Z,25.77
2019-02-08T02:38:24.801Z,28.80
2019-02-08T02:40:31.801Z,26.33
2019-02-08T02:42:38.362Z,26.77
2019-02-08T02:44:46.284Z,23.27
2019-02-08T02:46:54.763Z,26.60
2019-02-08T02:49:01.714Z,27.50
2019-02-08T02:51:08.502Z,26.37
2019-02-08T02:53:16.061Z,23.23
2019-02-08T02:55:32.422Z,24.40
2019-02-08T02:57:41.344Z,24.90
2019-02-08T02:59:47.986Z,25.40
2019-02-08T03:01:54.880Z,26.67
2019-02-08T03:04:02.140Z,24.97
2019-02-08T03:06:09.125Z,24.47
2019-02-08T03:08:17.539Z,23.17
2019-02-08T03:10:25.942Z,23.13
2019-02-08T03:12:32.657Z,25.27
2019-02-08T03:14:39.602Z,23.13
2019-02-08T03:16:46.420Z,25.23
2019-02-08T03:18:53.280Z,23.27
2019-02-08T03:21:00.622Z,26.40
2019-02-08T03:23:09.279Z,24.43
2019-02-08T03:25:21.379Z,24.73
2019-02-08T03:27:28.160Z,23.50
2019-02-08T03:29:35.700Z,24.70
2019-02-08T03:31:43.057Z,22.93
2019-02-08T03:33:50.358Z,22.63
2019-02-08T03:35:58.879Z,24.40
2019-02-08T03:38:06.065Z,22.77
2019-02-08T03:40:17.105Z,23.00
2019-02-08T03:42:24.146Z,25.83
2019-02-08T03:44:31.001Z,22.60
2019-02-08T03:46:37.467Z,22.17
2019-02-08T03:48:44.122Z,23.80
2019-02-08T03:50:50.800Z,24.40
2019-02-08T03:52:58.177Z,20.97
2019-02-08T03:55:06.842Z,23.63
2019-02-08T03:57:15.284Z,22.47
2019-02-08T03:59:22.282Z,24.33
2019-02-08T04:01:30.126Z,23.03
2019-02-08T04:03:37.250Z,25.20
2019-02-08T04:05:44.132Z,24.53
2019-02-08T04:07:52.837Z,26.23
2019-02-08T04:09:59.997Z,23.40
2019-02-08T04:12:06.978Z,23.30
2019-02-08T04:14:16.635Z,22.00
2019-02-08T04:16:23.318Z,22.03
2019-02-08T04:18:30.056Z,22.40
2019-02-08T04:20:38.605Z,22.47
2019-02-08T04:22:45.192Z,22.87
2019-02-08T04:24:51.825Z,19.73
2019-02-08T04:26:58.810Z,21.67
2019-02-08T04:29:05.573Z,22.27
2019-02-08T04:31:13.658Z,20.37
2019-02-08T04:33:20.213Z,24.37
2019-02-08T04:35:27.255Z,22.97
2019-02-08T04:37:33.960Z,25.43
2019-02-08T04:39:41.039Z,24.50
2019-02-08T04:41:49.023Z,22.93
2019-02-08T04:43:58.453Z,22.27
2019-02-08T04:46:06.202Z,20.60
2019-02-08T04:48:12.823Z,22.70
2019-02-08T04:50:28.794Z,20.43
2019-02-08T04:52:37.139Z,20.53
2019-02-08T04:54:43.853Z,21.83
2019-02-08T04:56:53.132Z,20.67
2019-02-08T04:58:59.581Z,21.27
2019-02-08T05:01:06.400Z,20.93
2019-02-08T05:03:13.342Z,19.43
2019-02-08T05:05:20.490Z,21.73
2019-02-08T05:07:27.993Z,22.20
2019-02-08T05:09:34.620Z,20.80
2019-02-08T05:11:41.461Z,19.97
2019-02-08T05:13:49.412Z,19.20
2019-02-08T05:15:55.861Z,22.63
2019-02-08T05:18:02.710Z,20.80
2019-02-08T05:20:18.046Z,20.60
2019-02-08T05:22:25.163Z,21.47
2019-02-08T05:24:32.180Z,19.90
2019-02-08T05:26:38.910Z,20.00
2019-02-08T05:28:46.756Z,19.43
2019-02-08T05:30:53.207Z,20.07
2019-02-08T05:33:20.775Z,20.10
2019-02-08T05:35:28.115Z,20.27
2019-02-08T05:37:34.887Z,20.20
2019-02-08T05:39:41.487Z,20.87
2019-02-08T05:41:48.348Z,21.90
2019-02-08T05:43:55.220Z,23.00
2019-02-08T05:46:01.752Z,20.93
2019-02-08T05:48:08.300Z,20.67
2019-02-08T05:50:25.935Z,20.77
2019-02-08T05:52:32.488Z,23.83
2019-02-08T05:54:39.244Z,22.43
2019-02-08T05:56:46.168Z,24.40
2019-02-08T05:58:54.178Z,22.30
2019-02-08T06:01:00.898Z,20.73
2019-02-08T06:03:08.176Z,23.37
2019-02-08T06:05:17.730Z,25.37
2019-02-08T06:07:25.356Z,24.10
2019-02-08T06:09:32.128Z,23.70
2019-02-08T06:11:38.908Z,21.77
2019-02-08T06:13:45.827Z,21.00
2019-02-08T06:15:52.439Z,21.07
2019-02-08T06:17:59.071Z,22.13
2019-02-08T06:20:10.184Z,22.87
2019-02-08T06:22:17.351Z,28.13
2019-02-08T06:24:25.666Z,29.23
2019-02-08T06:26:32.486Z,24.80
2019-02-08T06:28:39.030Z,22.83
2019-02-08T06:30:46.056Z,25.60
2019-02-08T06:32:55.510Z,24.47
2019-02-08T06:35:02.326Z,24.13
2019-02-08T06:37:09.116Z,30.90
2019-02-08T06:39:17.319Z,32.07
2019-02-08T06:41:23.916Z,30.00
2019-02-08T06:43:30.781Z,22.83
2019-02-08T06:45:38.027Z,23.57
2019-02-08T06:47:46.756Z,23.40
2019-02-08T06:49:54.597Z,24.10
2019-02-08T06:52:01.026Z,24.80
2019-02-08T06:54:07.966Z,22.60
2019-02-08T06:56:16.926Z,24.83
2019-02-08T06:58:26.407Z,20.90
2019-02-08T07:00:52.393Z,21.77
2019-02-08T07:03:20.695Z,21.63
2019-02-08T07:05:47.776Z,25.77
2019-02-08T07:08:09.834Z,41.20
2019-02-08T07:10:21.316Z,36.63
2019-02-08T07:12:32.206Z,35.77
2019-02-08T07:14:43.815Z,27.60
2019-02-08T07:17:01.496Z,31.43
2019-02-08T07:19:16.045Z,33.27
2019-02-08T07:21:31.685Z,30.27
2019-02-08T07:23:40.352Z,31.83
2019-02-08T07:25:48.768Z,29.87
2019-02-08T07:27:59.942Z,26.90
2019-02-08T07:30:12.461Z,25.67
2019-02-08T07:32:30.872Z,21.73
2019-02-08T07:34:39.355Z,22.07
2019-02-08T07:36:50.786Z,22.53
2019-02-08T07:39:03.778Z,22.13
2019-02-08T07:41:31.051Z,25.50
2019-02-08T07:43:40.375Z,22.07
2019-02-08T07:45:52.726Z,24.53
2019-02-08T07:48:10.425Z,20.80
2019-02-08T07:50:21.401Z,20.37
2019-02-08T07:52:47.241Z,21.80
2019-02-08T07:55:11.493Z,21.33
2019-02-08T07:57:23.956Z,20.57
2019-02-08T07:59:33.312Z,21.10
2019-02-08T08:01:46.354Z,32.53
2019-02-08T08:04:01.430Z,41.30
2019-02-08T08:06:09.615Z,29.37
2019-02-08T08:08:35.326Z,62.87
2019-02-08T08:10:46.915Z,47.30
2019-02-08T08:13:07.103Z,53.13
2019-02-08T08:15:18.995Z,20.17
2019-02-08T08:17:29.465Z,29.63
2019-02-08T08:19:52.862Z,25.00
2019-02-08T08:22:01.532Z,38.57
2019-02-08T08:24:12.915Z,33.77
2019-02-08T08:26:24.984Z,26.13
2019-02-08T08:28:42.963Z,30.50
2019-02-08T08:30:53.330Z,41.07
2019-02-08T08:33:04.905Z,36.43
2019-02-08T08:35:42.597Z,35.87
2019-02-08T08:38:13.096Z,25.83
2019-02-08T08:40:47.949Z,23.67
2019-02-08T08:43:36.719Z,22.50
2019-02-08T08:46:10.105Z,23.20
2019-02-08T08:48:48.892Z,21.67
2019-02-08T08:51:20.083Z,19.20
2019-02-08T08:54:01.036Z,20.67
2019-02-08T08:56:27.989Z,18.73
2019-02-08T08:59:05.515Z,20.27
2019-02-08T09:01:47.982Z,20.30
2019-02-08T09:04:07.861Z,24.90
2019-02-08T09:06:52.125Z,31.07
2019-02-08T09:09:18.559Z,27.20
2019-02-08T09:12:02.575Z,29.13
2019-02-08T09:14:39.205Z,30.97
2019-02-08T09:17:07.792Z,24.10
2019-02-08T09:19:31.960Z,29.13
2019-02-08T09:22:22.053Z,26.97
2019-02-08T09:24:53.761Z,23.83
2019-02-08T09:27:37.182Z,38.47
2019-02-08T09:30:16.773Z,25.53
2019-02-08T09:32:49.836Z,25.53
2019-02-08T09:35:25.266Z,20.00
2019-02-08T09:37:46.444Z,25.43
2019-02-08T09:39:57.385Z,25.63
2019-02-08T09:42:22.955Z,21.63
2019-02-08T09:45:27.345Z,29.00
2019-02-08T09:48:10.115Z,30.77
2019-02-08T09:50:41.704Z,23.80
2019-02-08T09:53:30.311Z,23.07
2019-02-08T09:55:44.154Z,19.60
2019-02-08T09:58:09.496Z,20.87
2019-02-08T10:00:35.098Z,20.77
2019-02-08T10:03:12.979Z,20.20
2019-02-08T10:05:43.406Z,19.73
2019-02-08T10:08:14.878Z,20.17
2019-02-08T10:10:54.612Z,21.63
2019-02-08T10:13:25.238Z,20.80
2019-02-08T10:16:11.039Z,21.03
2019-02-08T10:18:54.048Z,24.47
2019-02-08T10:21:26.305Z,22.23
2019-02-08T10:24:19.537Z,21.07
2019-02-08T10:26:57.478Z,21.90
2019-02-08T10:29:40.112Z,21.23
2019-02-08T10:32:27.222Z,20.07
2019-02-08T10:35:19.030Z,25.47
2019-02-08T10:37:57.024Z,26.63
2019-02-08T10:40:36.674Z,20.67
2019-02-08T10:43:03.476Z,18.90
2019-02-08T10:45:35.129Z,20.27
2019-02-08T10:48:10.175Z,18.17
2019-02-08T10:50:50.078Z,19.97
2019-02-08T10:53:53.150Z,17.33
2019-02-08T10:56:25.204Z,18.33
2019-02-08T10:59:16.795Z,18.77
2019-02-08T11:01:52.392Z,17.43
2019-02-08T11:04:34.695Z,18.10
2019-02-08T11:07:08.363Z,16.07
2019-02-08T11:09:53.876Z,16.37
2019-02-08T11:12:24.705Z,17.10
2019-02-08T11:15:03.535Z,14.60
2019-02-08T11:17:49.232Z,17.63
2019-02-08T11:19:59.107Z,20.03
2019-02-08T11:22:05.915Z,18.03
2019-02-08T11:24:13.094Z,16.23
2019-02-08T11:26:24.168Z,16.27
2019-02-08T11:28:30.055Z,17.10
2019-02-08T11:30:36.859Z,19.23
2019-02-08T11:32:45.122Z,19.97
2019-02-08T11:34:52.005Z,20.23
2019-02-08T11:36:58.882Z,18.90
2019-02-08T11:39:11.790Z,20.23
2019-02-08T11:41:18.653Z,20.33
2019-02-08T11:43:27.252Z,19.10
2019-02-08T11:45:33.756Z,19.30
2019-02-08T11:47:41.163Z,18.53
2019-02-08T11:49:47.872Z,18.47
2019-02-08T11:51:54.623Z,20.80
2019-02-08T11:54:04.030Z,20.17
2019-02-08T11:56:11.073Z,19.37
2019-02-08T11:58:17.705Z,23.27
2019-02-08T12:00:31.183Z,24.13
2019-02-08T12:02:40.510Z,20.77
2019-02-08T12:04:46.622Z,21.70
2019-02-08T12:06:53.350Z,24.63
2019-02-08T12:09:01.444Z,21.17
2019-02-08T12:11:09.432Z,20.33
2019-02-08T12:13:16.172Z,20.80
2019-02-08T12:15:24.505Z,27.67
2019-02-08T12:17:31.414Z,22.63
2019-02-08T12:19:38.379Z,21.40
2019-02-08T12:21:44.984Z,20.53
2019-02-08T12:23:51.623Z,22.67
2019-02-08T12:25:58.884Z,19.47
2019-02-08T12:28:06.606Z,20.87
2019-02-08T12:30:40.202Z,18.77
2019-02-08T12:32:49.937Z,20.27
2019-02-08T12:34:58.026Z,24.70
2019-02-08T12:37:04.741Z,37.57
2019-02-08T12:39:12.580Z,24.07
2019-02-08T12:41:18.963Z,22.67
2019-02-08T12:43:27.110Z,23.40
2019-02-08T12:45:33.965Z,22.87
2019-02-08T12:47:40.503Z,29.57
2019-02-08T12:49:48.531Z,21.93
2019-02-08T12:51:55.181Z,36.80
2019-02-08T12:54:03.283Z,28.97
2019-02-08T12:56:12.228Z,23.37
2019-02-08T12:58:18.680Z,20.53
2019-02-08T13:00:30.576Z,19.27
2019-02-08T13:02:37.335Z,19.30
2019-02-08T13:04:44.207Z,18.60
2019-02-08T13:06:51.119Z,20.20
2019-02-08T13:08:57.877Z,16.70
2019-02-08T13:11:06.084Z,19.07
2019-02-08T13:13:12.839Z,19.50
2019-02-08T13:15:19.983Z,22.50
2019-02-08T13:17:29.708Z,33.80
2019-02-08T13:19:36.327Z,20.20
2019-02-08T13:21:43.043Z,21.97
2019-02-08T13:23:49.682Z,20.93
2019-02-08T13:25:57.897Z,19.10
2019-02-08T13:28:04.388Z,18.87
2019-02-08T13:30:32.548Z,19.13
2019-02-08T13:32:39.187Z,16.53
2019-02-08T13:34:45.948Z,18.30
2019-02-08T13:36:52.847Z,17.57
2019-02-08T13:39:00.007Z,17.83
2019-02-08T13:41:06.835Z,16.33
2019-02-08T13:43:13.495Z,16.37
2019-02-08T13:45:20.931Z,16.93
2019-02-08T13:47:27.488Z,18.13
2019-02-08T13:49:36.774Z,18.30
2019-02-08T13:51:43.650Z,16.80
2019-02-08T13:53:51.796Z,17.67
2019-02-08T13:55:58.968Z,20.13
2019-02-08T13:58:06.207Z,17.80
2019-02-08T14:00:17.066Z,16.77
2019-02-08T14:02:23.643Z,17.20
2019-02-08T14:04:31.754Z,15.87
2019-02-08T14:06:38.702Z,15.97
2019-02-08T14:08:45.185Z,16.60
2019-02-08T14:10:53.150Z,15.97
2019-02-08T14:12:59.787Z,17.33
2019-02-08T14:15:11.639Z,15.97
2019-02-08T14:17:19.783Z,16.57
2019-02-08T14:19:26.572Z,16.47
2019-02-08T14:21:33.398Z,13.93
2019-02-08T14:23:41.225Z,14.57
2019-02-08T14:25:48.892Z,18.73
2019-02-08T14:27:55.514Z,15.10
2019-02-08T14:30:03.792Z,14.83
2019-02-08T14:32:11.166Z,16.60
2019-02-08T14:34:17.945Z,16.00
2019-02-08T14:36:24.494Z,16.50
2019-02-08T14:38:31.134Z,16.13
2019-02-08T14:40:38.968Z,14.47
2019-02-08T14:42:46.159Z,15.33
2019-02-08T14:44:53.005Z,22.47
2019-02-08T14:46:59.765Z,16.57
2019-02-08T14:49:06.775Z,18.83
2019-02-08T14:51:13.645Z,18.33
2019-02-08T14:53:20.642Z,32.00
2019-02-08T14:55:27.576Z,17.00
2019-02-08T14:57:34.333Z,21.50
2019-02-08T14:59:41.259Z,18.60
2019-02-08T15:01:49.176Z,16.37
2019-02-08T15:03:55.996Z,15.90
2019-02-08T15:06:02.696Z,25.17
2019-02-08T15:08:09.485Z,23.90
2019-02-08T15:10:20.331Z,32.00
2019-02-08T15:12:27.286Z,30.13
2019-02-08T15:14:34.872Z,22.20
2019-02-08T15:16:41.583Z,22.73
2019-02-08T15:18:48.296Z,23.57
2019-02-08T15:20:54.872Z,19.87
2019-02-08T15:23:01.789Z,18.73
2019-02-08T15:25:10.935Z,20.37
2019-02-08T15:27:24.174Z,20.30
2019-02-08T15:29:26.855Z,19.53
2019-02-08T15:31:33.634Z,18.43
2019-02-08T15:33:40.714Z,17.47
2019-02-08T15:35:50.154Z,18.93
2019-02-08T15:37:57.423Z,21.60
2019-02-08T15:40:05.805Z,17.20
2019-02-08T15:42:14.371Z,16.90
2019-02-08T15:44:21.923Z,17.57
2019-02-08T15:46:29.561Z,15.53
2019-02-08T15:48:36.915Z,17.43
2019-02-08T15:50:44.090Z,16.67
2019-02-08T15:52:52.761Z,18.60
2019-02-08T15:54:59.850Z,23.83
2019-02-08T15:57:08.150Z,20.20
2019-02-08T15:59:15.174Z,18.10
2019-02-08T16:01:22.082Z,19.97
2019-02-08T16:03:30.513Z,39.33
2019-02-08T16:05:38.161Z,34.47
2019-02-08T16:07:45.401Z,20.17
2019-02-08T16:09:52.373Z,42.03
2019-02-08T16:11:59.915Z,22.70
2019-02-08T16:14:09.354Z,23.60
2019-02-08T16:16:17.041Z,26.77
2019-02-08T16:18:24.009Z,33.97
2019-02-08T16:20:31.193Z,29.73
2019-02-08T16:22:38.424Z,24.77
2019-02-08T16:24:45.373Z,23.43
2019-02-08T16:26:52.611Z,22.97
2019-02-08T16:28:59.716Z,22.93
2019-02-08T16:31:07.251Z,26.07
2019-02-08T16:33:14.295Z,29.70
2019-02-08T16:35:24.114Z,23.23
2019-02-08T16:37:31.538Z,26.10
2019-02-08T16:39:38.624Z,27.07
2019-02-08T16:41:46.384Z,29.67
2019-02-08T16:43:53.805Z,33.70
2019-02-08T16:46:01.316Z,28.30
2019-02-08T16:48:17.802Z,32.70
2019-02-08T16:50:31.074Z,23.77
2019-02-08T16:52:38.057Z,18.93
2019-02-08T16:54:44.975Z,20.20
2019-02-08T16:56:52.361Z,20.13
2019-02-08T16:59:00.546Z,20.47
2019-02-08T17:01:08.463Z,19.87
2019-02-08T17:03:16.153Z,19.57
2019-02-08T17:05:27.141Z,21.00
2019-02-08T17:07:34.525Z,18.20
2019-02-08T17:09:41.695Z,17.47
2019-02-08T17:11:49.184Z,25.17
2019-02-08T17:13:57.404Z,25.13
2019-02-08T17:16:04.704Z,25.63
2019-02-08T17:18:12.411Z,19.57
2019-02-08T17:20:24.204Z,23.17
2019-02-08T17:22:31.321Z,20.00
2019-02-08T17:24:38.445Z,22.57
2019-02-08T17:26:45.606Z,23.50
2019-02-08T17:28:53.154Z,25.57
2019-02-08T17:31:00.605Z,24.93
2019-02-08T17:33:09.085Z,25.30
2019-02-08T17:35:22.353Z,27.77
2019-02-08T17:37:29.395Z,29.23
2019-02-08T17:39:36.842Z,34.17
2019-02-08T17:41:44.363Z,32.47
2019-02-08T17:43:53.163Z,21.60
2019-02-08T17:46:00.293Z,24.20
2019-02-08T17:48:11.570Z,24.50
2019-02-08T17:50:27.512Z,21.53
2019-02-08T17:52:35.371Z,25.30
2019-02-08T17:54:43.001Z,24.37
2019-02-08T17:56:50.374Z,24.60
2019-02-08T17:58:58.054Z,22.50
2019-02-08T18:01:05.473Z,23.33
2019-02-08T18:03:12.683Z,25.57
2019-02-08T18:05:20.332Z,24.13
2019-02-08T18:07:27.774Z,24.83
2019-02-08T18:09:35.314Z,25.30
2019-02-08T18:11:42.453Z,22.27
2019-02-08T18:13:49.722Z,26.33
2019-02-08T18:15:57.373Z,25.17
2019-02-08T18:18:09.236Z,25.70
2019-02-08T18:20:26.854Z,26.30
2019-02-08T18:22:34.006Z,24.70
2019-02-08T18:24:41.406Z,23.13
2019-02-08T18:26:48.925Z,20.03
2019-02-08T18:28:55.937Z,25.37
2019-02-08T18:31:03.134Z,23.47
2019-02-08T18:33:10.686Z,22.73
2019-02-08T18:35:18.522Z,22.73
2019-02-08T18:37:25.775Z,24.63
2019-02-08T18:39:33.071Z,21.73
2019-02-08T18:41:40.539Z,21.93
2019-02-08T18:43:48.541Z,21.13
2019-02-08T18:45:56.703Z,21.93
2019-02-08T18:48:04.175Z,21.13
2019-02-08T18:50:32.834Z,20.20
2019-02-08T18:52:39.944Z,20.13
2019-02-08T18:54:47.524Z,23.23
2019-02-08T18:56:54.954Z,23.83
2019-02-08T18:59:02.915Z,24.33
2019-02-08T19:01:10.232Z,24.57
2019-02-08T19:03:17.301Z,25.30
2019-02-08T19:05:25.754Z,27.93
2019-02-08T19:07:42.201Z,27.90
2019-02-08T19:09:49.364Z,26.13
2019-02-08T19:11:56.915Z,27.43
2019-02-08T19:14:03.952Z,23.93
2019-02-08T19:16:11.114Z,24.57
2019-02-08T19:18:18.750Z,24.00
2019-02-08T19:20:32.054Z,146.30
2019-02-08T19:22:40.743Z,93.57
2019-02-08T19:24:47.972Z,152.20
2019-02-08T19:26:55.531Z,74.77
2019-02-08T19:29:03.131Z,69.50
2019-02-08T19:31:10.502Z,30.23
2019-02-08T19:33:17.714Z,33.93
2019-02-08T19:35:25.111Z,25.20
2019-02-08T19:37:32.671Z,34.30
2019-02-08T19:39:44.501Z,25.33
2019-02-08T19:41:51.473Z,26.60
2019-02-08T19:43:59.031Z,26.43
2019-02-08T19:46:06.352Z,25.73
2019-02-08T19:48:14.111Z,22.27
2019-02-08T19:50:28.051Z,21.23
2019-02-08T19:52:34.985Z,22.83
2019-02-08T19:54:43.509Z,23.60
2019-02-08T19:56:50.914Z,22.03
2019-02-08T19:58:59.104Z,24.03
2019-02-08T20:01:08.444Z,22.53
2019-02-08T20:03:16.552Z,24.20
2019-02-08T20:05:28.340Z,23.27
2019-02-08T20:07:35.772Z,23.73
2019-02-08T20:09:43.577Z,26.43
2019-02-08T20:11:51.342Z,28.53
2019-02-08T20:13:58.654Z,23.17
2019-02-08T20:16:06.814Z,24.47
2019-02-08T20:18:14.691Z,24.07
2019-02-08T20:20:21.914Z,23.23
2019-02-08T20:22:29.324Z,26.13
2019-02-08T20:24:36.444Z,23.00
2019-02-08T20:26:43.706Z,26.30
2019-02-08T20:28:50.857Z,24.40
2019-02-08T20:30:57.931Z,24.87
2019-02-08T20:33:05.897Z,27.67
2019-02-08T20:35:16.724Z,30.20
2019-02-08T20:37:26.149Z,29.30
2019-02-08T20:39:34.306Z,27.93
2019-02-08T20:41:47.000Z,31.07
2019-02-08T20:43:54.539Z,30.70
2019-02-08T20:46:02.624Z,29.80
2019-02-08T20:48:22.372Z,27.33
2019-02-08T20:50:30.214Z,26.30
2019-02-08T20:52:37.862Z,25.57
2019-02-08T20:54:46.493Z,25.23
2019-02-08T20:56:59.033Z,28.67
2019-02-08T20:59:04.071Z,33.17
2019-02-08T21:01:14.723Z,29.23
2019-02-08T21:03:23.674Z,29.83
2019-02-08T21:05:32.225Z,28.87
2019-02-08T21:07:39.623Z,31.03
2019-02-08T21:09:46.514Z,32.20
2019-02-08T21:11:53.707Z,27.20
2019-02-08T21:14:00.721Z,26.37
2019-02-08T21:16:08.600Z,29.23
2019-02-08T21:18:15.788Z,27.47
2019-02-08T21:20:25.021Z,27.37
2019-02-08T21:22:32.180Z,25.07
2019-02-08T21:24:41.811Z,24.23
2019-02-08T21:26:49.580Z,24.43
2019-02-08T21:28:57.913Z,26.37
2019-02-08T21:31:11.562Z,25.33
2019-02-08T21:33:18.963Z,26.73
2019-02-08T21:35:25.924Z,25.03
2019-02-08T21:37:33.153Z,26.33
2019-02-08T21:39:40.115Z,26.90
2019-02-08T21:41:48.974Z,26.67
2019-02-08T21:43:56.485Z,25.70
2019-02-08T21:46:04.130Z,24.80
2019-02-08T21:48:12.763Z,23.47
2019-02-08T21:50:22.766Z,21.43
2019-02-08T21:52:30.194Z,22.60
2019-02-08T21:54:38.065Z,21.33
2019-02-08T21:56:45.318Z,23.00
2019-02-08T21:58:52.256Z,22.03
2019-02-08T22:00:59.620Z,21.93
2019-02-08T22:03:08.339Z,22.73
2019-02-08T22:05:15.529Z,23.17
2019-02-08T22:07:22.772Z,20.83
2019-02-08T22:09:29.744Z,23.67
2019-02-08T22:11:37.155Z,24.77
2019-02-08T22:13:44.074Z,22.87
2019-02-08T22:15:51.243Z,18.87
2019-02-08T22:17:58.224Z,20.43
2019-02-08T22:20:08.569Z,21.27
2019-02-08T22:22:15.234Z,22.60
2019-02-08T22:24:22.534Z,22.63
2019-02-08T22:26:30.905Z,21.10
2019-02-08T22:28:37.555Z,20.40
2019-02-08T22:30:44.394Z,21.00
2019-02-08T22:32:52.916Z,23.13
2019-02-08T22:34:59.684Z,22.73
2019-02-08T22:37:07.081Z,23.70
2019-02-08T22:39:15.513Z,26.17
2019-02-08T22:41:24.172Z,23.00
2019-02-08T22:43:34.052Z,24.80
2019-02-08T22:45:43.642Z,23.53
2019-02-08T22:47:50.434Z,24.07
2019-02-08T22:49:58.583Z,25.03
2019-02-08T22:52:05.714Z,22.60
2019-02-08T22:54:12.914Z,21.90
2019-02-08T22:56:19.607Z,22.50
2019-02-08T22:58:26.564Z,20.50
2019-02-08T23:00:44.833Z,23.20
2019-02-08T23:02:53.570Z,21.70
2019-02-08T23:05:00.087Z,21.77
2019-02-08T23:07:08.072Z,22.30
2019-02-08T23:09:21.835Z,21.20
2019-02-08T23:11:29.644Z,21.13
2019-02-08T23:13:36.552Z,22.50
2019-02-08T23:15:43.296Z,21.77
2019-02-08T23:17:50.084Z,23.97
2019-02-08T23:19:56.504Z,22.30
2019-02-08T23:22:03.303Z,23.07
2019-02-08T23:24:10.384Z,21.10
2019-02-08T23:26:17.154Z,21.73
2019-02-08T23:28:23.915Z,21.70
2019-02-08T23:30:30.774Z,20.10
2019-02-08T23:32:37.573Z,21.63
2019-02-08T23:34:45.262Z,21.47
2019-02-08T23:36:52.354Z,21.00
2019-02-08T23:38:59.433Z,21.37
2019-02-08T23:41:07.764Z,22.90
2019-02-08T23:43:14.741Z,21.90
2019-02-08T23:45:23.873Z,20.63
2019-02-08T23:47:31.124Z,22.43
2019-02-08T23:49:37.719Z,23.57
2019-02-08T23:51:44.647Z,20.87
2019-02-08T23:53:51.368Z,21.53
2019-02-08T23:55:59.130Z,20.87
2019-02-08T23:58:08.244Z,20.33
